AirNav  
 
airports navaids fix Aviation Fuel
  

44E Forepaugh Airport
Wickenburg, Arizona, USA

GOING TO WICKENBURG?

Reserve a HOTEL

FAA INFORMATION EFFECTIVE 20 JANUARY 2005

Location

FAA Identifier: 44E
Lat/Long: 33-57-14.1020N / 112-59-34.6630W
33-57.235033N / 112-59.577717W
33.9539172 / -112.9929619
(estimated)
Elevation: 2428 ft. / 740 m (estimated)
Variation: 13E (1985)
From city: 14 miles W of WICKENBURG, AZ
Zip code: 85390

Airport Operations

Airport use: Open to the public
Sectional chart: PHOENIX
Control tower: no
ARTCC: ALBUQUERQUE CENTER
FSS: PRESCOTT FLIGHT SERVICE STATION [1-866-226-3763]
NOTAMs facility: PRC (NOTAM-D service available)
Attendance: UNATNDD
Wind indicator: yes
Segmented circle: yes

Airport Communications

CTAF: 122.9

Nearby radio navigation aids

VOR radial/distance  VOR name  Freq  Var
BXKr330/31.2BUCKEYE VORTAC110.6014E

Airport Services

Airframe service: NONE
Powerplant service: NONE

Runway Information

Runway 3/21

Dimensions: 4671 x 80 ft. / 1424 x 24 m
Surface: dirt
RUNWAY 3  RUNWAY 21
Traffic pattern: rightleft
Displaced threshold: no760 ft.
Obstructions: none12 ft. tree, 240 ft. from runway, 90 ft. right of centerline, 20:1 slope to clear
RY 21 APCH RATIO 50:1 TO DSPLCD THLD DUE TO ARPT PROPERTY LINE AND VEGETATION.

Airport Operational Statistics

Aircraft operations: avg 42/month
100% transient general aviation

Additional Remarks

HEAVY LOW JET TFC IN AREA.
OCCASIONALLY SHEEP GRAZING ACROSS RWY STRIP.
RADIO CONTROLLED ACFT AND GLIDER ACTIVITY ON AND INVOF ARPT.
AIRPORT CLOSED INDEFLY.

Instrument Procedures

There are no published instrument procedures at 44E.

Some nearby airports with instrument procedures:

KLUF - Luke Air Force Base (39 nm SE)
KGEU - Glendale Municipal Airport (43 nm SE)
KDVT - Phoenix Deer Valley Airport (48 nm E)
KPRC - Ernest A. Love Field Airport (51 nm NE)
KSDL - Scottsdale Airport (58 nm E)
 
Loc | Ops | Rwys | IFR | FBO | Links
Com | Nav | Svcs | Stats | Notes
 
Area around 44E (Forepaugh Airport)
 
Road maps at: MapQuest MapPoint Yahoo! Maps Google Rand McNally
Topographic chart at: TopoZone
Satellite photo at: TerraServer

 
Aerial photo of 44E (Forepaugh Airport)
 
Airport distance calculator
Flying to Forepaugh Airport? Find the distance to fly.

From to 44E

Sunrise and sunset
Times for 05-Mar-2005
 Local
(UTC-7)
 Zulu
(UTC)
Morning civil twilight06:3213:32
Sunrise06:5713:57
Sunset18:3101:31
Evening civil twilight18:5601:56
 
METAR
KLUF 
41nm SE 
052057Z 07009KT 20SM SCT060 BKN120 BKN250 19/09 A3001 RMK SLP153 58020
KGEU 
43nm SE 
052050Z 04004KT 20SM SCT050 BKN150 18/07 A2999
KGYR 
45nm SE 
052047Z 06010KT 30SM VCSH FEW060 BKN100 BKN250 18/08 A3001
KDVT 
49nm E 
052053Z 06012G17KT 10SM FEW110 17/07 A3000 RMK AO2 RAE1955 SLP148 P0000 60000 T01670067 58020
TAF
KLUF 
41nm SE 
051717 15009KT 9999 SCT060 SCT120 SCT250 QNH2980INS
TEMPO 2024 VRB15G24KT -TSRAGS BKN060CB
BECMG 0102 32009KT 9000 -SHRA BKN060 BKN120 610606 QNH2982INS
BECMG 1112 VRB06KT 9999 NSW FEW060 BKN150 QNH2990INS T20/22Z T11/12Z LAST NO AMDS AFT 0523 NEXT 0609

 
 

Where to Stay: Hotels, Motels, Resorts, B&Bs, Campgrounds

 In this space we feature lodging establishments that are convenient to the Forepaugh Airport. If your hotel/inn/B&B/resort is near the Forepaugh Airport, provides convenient transportation, or is otherwise attractive to pilots, flight crews, and airport users, consider listing it here.  
Feature A Hotel
 

Hotels in other cities near Forepaugh Airport

3 in Wickenburg
 

Would you like to see your business listed on this page?

 If your business provides an interesting product or service to pilots, flight crews, aircraft, or users of the Forepaugh Airport, you should consider listing it here.  To start the listing process, click on the button below
 
Add a business
 

Other Pages about Forepaugh Airport

www.azdot.gov/...
Add a link
 
Copyright © AirNav, LLC. All rights reserved. Privacy Policy  Contact